sensor_id;sensor_type;location;lat;lon;timestamp;temperature;humidity
1644;DHT22;46825;51.99869940;8.49421771;2023-10-31T00:00:03;12.90;99.90
1644;DHT22;46825;51.99869940;8.49421771;2023-10-31T00:01:04;12.90;99.90
1644;DHT22;46825;51.99869940;8.49421771;2023-10-31T00:02:04;12.90;99.90
1644;DHT22;46825;51.99869940;8.49421771;2023-10-31T00:03:05;12.90;99.90
1644;DHT22;46825;51.99869940;8.49421771;2023-10-31T00:04:05;12.80;99.90
1644;DHT22;46825;51.99869940;8.49421771;2023-10-31T00:05:06;12.90;99.90
1644;DHT22;46825;51.99869940;8.49421771;2023-10-31T00:06:07;12.90;99.90
1644;DHT22;46825;51.99869940;8.49421771;2023-10-31T00:07:07;12.80;99.90
1644;DHT22;46825;51.99869940;8.49421771;2023-10-31T00:08:08;12.80;99.90
1644;DHT22;46825;51.99869940;8.49421771;2023-10-31T00:09:08;12.80;99.90
1644;DHT22;46825;51.99869940;8.49421771;2023-10-31T00:10:11;12.90;99.90
1644;DHT22;46825;51.99869940;8.49421771;2023-10-31T00:11:11;12.90;99.90
1644;DHT22;46825;51.99869940;8.49421771;2023-10-31T00:12:12;12.90;99.90
1644;DHT22;46825;51.99869940;8.49421771;2023-10-31T00:13:13;12.90;99.90
1644;DHT22;46825;51.99869940;8.49421771;2023-10-31T00:14:13;12.90;99.90
1644;DHT22;46825;51.99869940;8.49421771;2023-10-31T00:15:14;12.90;99.90
1644;DHT22;46825;51.99869940;8.49421771;2023-10-31T00:17:15;12.80;99.90
1644;DHT22;46825;51.99869940;8.49421771;2023-10-31T00:18:16;12.80;99.90
1644;DHT22;46825;51.99869940;8.49421771;2023-10-31T00:19:16;12.90;99.90
1644;DHT22;46825;51.99869940;8.49421771;2023-10-31T00:20:17;12.80;99.90
1644;DHT22;46825;51.99869940;8.49421771;2023-10-31T00:21:19;12.80;99.90
1644;DHT22;46825;51.99869940;8.49421771;2023-10-31T00:22:20;12.80;99.90
1644;DHT22;46825;51.99869940;8.49421771;2023-10-31T00:23:22;12.80;99.90
1644;DHT22;46825;51.99869940;8.49421771;2023-10-31T00:24:22;12.80;99.90
1644;DHT22;46825;51.99869940;8.49421771;2023-10-31T00:25:23;12.70;99.90
1644;DHT22;46825;51.99869940;8.49421771;2023-10-31T00:26:23;12.70;99.90
1644;DHT22;46825;51.99869940;8.49421771;2023-10-31T00:27:24;12.70;99.90
1644;DHT22;46825;51.99869940;8.49421771;2023-10-31T00:28:24;12.70;99.90
1644;DHT22;46825;51.99869940;8.49421771;2023-10-31T00:29:25;12.70;99.90
1644;DHT22;46825;51.99869940;8.49421771;2023-10-31T00:30:26;12.70;99.90
1644;DHT22;46825;51.99869940;8.49421771;2023-10-31T00:31:26;12.80;99.90
1644;DHT22;46825;51.99869940;8.49421771;2023-10-31T00:33:28;12.80;99.90
1644;DHT22;46825;51.99869940;8.49421771;2023-10-31T00:34:28;12.80;99.90
1644;DHT22;46825;51.99869940;8.49421771;2023-10-31T00:35:29;12.80;99.90
1644;DHT22;46825;51.99869940;8.49421771;2023-10-31T00:36:31;12.80;99.90
1644;DHT22;46825;51.99869940;8.49421771;2023-10-31T00:37:31;12.80;99.90
1644;DHT22;46825;51.99869940;8.49421771;2023-10-31T00:38:32;12.80;99.90
1644;DHT22;46825;51.99869940;8.49421771;2023-10-31T00:39:32;13.00;99.90
1644;DHT22;46825;51.99869940;8.49421771;2023-10-31T00:40:36;12.90;99.90
1644;DHT22;46825;51.99869940;8.49421771;2023-10-31T00:41:38;12.90;99.90
1644;DHT22;46825;51.99869940;8.49421771;2023-10-31T00:42:39;12.90;99.90
1644;DHT22;46825;51.99869940;8.49421771;2023-10-31T00:43:42;12.90;99.90
1644;DHT22;46825;51.99869940;8.49421771;2023-10-31T00:44:42;12.90;99.90
1644;DHT22;46825;51.99869940;8.49421771;2023-10-31T00:45:43;12.90;99.90
1644;DHT22;46825;51.99869940;8.49421771;2023-10-31T00:46:43;12.90;99.90
1644;DHT22;46825;51.99869940;8.49421771;2023-10-31T00:47:44;12.90;99.90
1644;DHT22;46825;51.99869940;8.49421771;2023-10-31T00:49:45;12.90;99.90
1644;DHT22;46825;51.99869940;8.49421771;2023-10-31T00:50:46;12.90;99.90
1644;DHT22;46825;51.99869940;8.49421771;2023-10-31T00:51:46;12.90;99.90
1644;DHT22;46825;51.99869940;8.49421771;2023-10-31T00:52:47;12.90;99.90
1644;DHT22;46825;51.99869940;8.49421771;2023-10-31T00:53:48;12.90;99.90
1644;DHT22;46825;51.99869940;8.49421771;2023-10-31T00:54:48;12.90;99.90
1644;DHT22;46825;51.99869940;8.49421771;2023-10-31T00:55:49;12.90;99.90
1644;DHT22;46825;51.99869940;8.49421771;2023-10-31T00:56:49;12.90;99.90
1644;DHT22;46825;51.99869940;8.49421771;2023-10-31T00:57:50;12.90;99.90
1644;DHT22;46825;51.99869940;8.49421771;2023-10-31T00:58:50;12.90;99.90
1644;DHT22;46825;51.99869940;8.49421771;2023-10-31T00:59:51;12.90;99.90
1644;DHT22;46825;51.99869940;8.49421771;2023-10-31T01:01:55;12.90;99.90
1644;DHT22;46825;51.99869940;8.49421771;2023-10-31T01:02:56;12.90;99.90
1644;DHT22;46825;51.99869940;8.49421771;2023-10-31T01:03:57;12.90;99.90
1644;DHT22;46825;51.99869940;8.49421771;2023-10-31T01:04:57;13.00;99.90
1644;DHT22;46825;51.99869940;8.49421771;2023-10-31T01:05:58;12.90;99.90
1644;DHT22;46825;51.99869940;8.49421771;2023-10-31T01:06:58;12.90;99.90
1644;DHT22;46825;51.99869940;8.49421771;2023-10-31T01:07:59;12.80;99.90
1644;DHT22;46825;51.99869940;8.49421771;2023-10-31T01:08:59;12.90;99.90
1644;DHT22;46825;51.99869940;8.49421771;2023-10-31T01:10:00;12.90;99.90
1644;DHT22;46825;51.99869940;8.49421771;2023-10-31T01:11:00;12.90;99.90
1644;DHT22;46825;51.99869940;8.49421771;2023-10-31T01:12:01;12.90;99.90
1644;DHT22;46825;51.99869940;8.49421771;2023-10-31T01:13:02;12.90;99.90
1644;DHT22;46825;51.99869940;8.49421771;2023-10-31T01:14:03;12.90;99.90
1644;DHT22;46825;51.99869940;8.49421771;2023-10-31T01:15:04;12.90;99.90
1644;DHT22;46825;51.99869940;8.49421771;2023-10-31T01:17:06;12.80;99.90
1644;DHT22;46825;51.99869940;8.49421771;2023-10-31T01:18:07;13.00;99.90
1644;DHT22;46825;51.99869940;8.49421771;2023-10-31T01:19:08;12.90;99.90
1644;DHT22;46825;51.99869940;8.49421771;2023-10-31T01:20:08;12.80;99.90
1644;DHT22;46825;51.99869940;8.49421771;2023-10-31T01:21:10;12.80;99.90
1644;DHT22;46825;51.99869940;8.49421771;2023-10-31T01:22:11;12.90;99.90
1644;DHT22;46825;51.99869940;8.49421771;2023-10-31T01:23:11;12.60;99.90
1644;DHT22;46825;51.99869940;8.49421771;2023-10-31T01:24:12;12.80;99.90
1644;DHT22;46825;51.99869940;8.49421771;2023-10-31T01:25:12;12.80;99.90
1644;DHT22;46825;51.99869940;8.49421771;2023-10-31T01:26:13;12.80;99.90
1644;DHT22;46825;51.99869940;8.49421771;2023-10-31T01:28:15;12.90;99.90
1644;DHT22;46825;51.99869940;8.49421771;2023-10-31T01:29:16;12.90;99.90
1644;DHT22;46825;51.99869940;8.49421771;2023-10-31T01:30:16;12.90;99.90
1644;DHT22;46825;51.99869940;8.49421771;2023-10-31T01:31:17;12.90;99.90
1644;DHT22;46825;51.99869940;8.49421771;2023-10-31T01:32:17;12.90;99.90
1644;DHT22;46825;51.99869940;8.49421771;2023-10-31T01:33:18;12.90;99.90
1644;DHT22;46825;51.99869940;8.49421771;2023-10-31T01:34:19;12.90;99.90
1644;DHT22;46825;51.99869940;8.49421771;2023-10-31T01:35:19;12.90;99.90
1644;DHT22;46825;51.99869940;8.49421771;2023-10-31T01:36:25;12.90;99.90
1644;DHT22;46825;51.99869940;8.49421771;2023-10-31T01:37:25;12.90;99.90
1644;DHT22;46825;51.99869940;8.49421771;2023-10-31T01:38:26;12.80;99.90
1644;DHT22;46825;51.99869940;8.49421771;2023-10-31T01:39:26;12.90;99.90
1644;DHT22;46825;51.99869940;8.49421771;2023-10-31T01:40:27;12.90;99.90
1644;DHT22;46825;51.99869940;8.49421771;2023-10-31T01:41:27;12.90;99.90
1644;DHT22;46825;51.99869940;8.49421771;2023-10-31T01:42:28;12.90;99.90
1644;DHT22;46825;51.99869940;8.49421771;2023-10-31T01:43:38;12.80;99.90
1644;DHT22;46825;51.99869940;8.49421771;2023-10-31T01:44:38;12.90;99.90
1644;DHT22;46825;51.99869940;8.49421771;2023-10-31T01:45:41;12.80;99.90
1644;DHT22;46825;51.99869940;8.49421771;2023-10-31T01:46:42;12.80;99.90
1644;DHT22;46825;51.99869940;8.49421771;2023-10-31T01:47:43;12.80;99.90
1644;DHT22;46825;51.99869940;8.49421771;2023-10-31T01:49:47;12.80;99.90
1644;DHT22;46825;51.99869940;8.49421771;2023-10-31T01:51:49;12.80;99.90
1644;DHT22;46825;51.99869940;8.49421771;2023-10-31T01:52:51;12.80;99.90
1644;DHT22;46825;51.99869940;8.49421771;2023-10-31T01:53:52;12.80;99.90
1644;DHT22;46825;51.99869940;8.49421771;2023-10-31T01:54:53;12.70;99.90
1644;DHT22;46825;51.99869940;8.49421771;2023-10-31T01:55:54;12.70;99.90
1644;DHT22;46825;51.99869940;8.49421771;2023-10-31T01:56:56;12.70;99.90
1644;DHT22;46825;51.99869940;8.49421771;2023-10-31T01:57:59;12.70;99.90
1644;DHT22;46825;51.99869940;8.49421771;2023-10-31T01:59:00;12.70;99.90
1644;DHT22;46825;51.99869940;8.49421771;2023-10-31T02:01:02;12.60;99.90
1644;DHT22;46825;51.99869940;8.49421771;2023-10-31T02:03:07;12.60;99.90
1644;DHT22;46825;51.99869940;8.49421771;2023-10-31T02:04:07;12.60;99.90
1644;DHT22;46825;51.99869940;8.49421771;2023-10-31T02:05:09;12.50;99.90
1644;DHT22;46825;51.99869940;8.49421771;2023-10-31T02:06:10;12.40;99.90
1644;DHT22;46825;51.99869940;8.49421771;2023-10-31T02:07:10;12.40;99.90
1644;DHT22;46825;51.99869940;8.49421771;2023-10-31T02:08:11;12.40;99.90
1644;DHT22;46825;51.99869940;8.49421771;2023-10-31T02:09:12;12.30;99.90
1644;DHT22;46825;51.99869940;8.49421771;2023-10-31T02:10:12;12.30;99.90
1644;DHT22;46825;51.99869940;8.49421771;2023-10-31T02:11:13;12.20;99.90
1644;DHT22;46825;51.99869940;8.49421771;2023-10-31T02:12:35;12.20;99.90
1644;DHT22;46825;51.99869940;8.49421771;2023-10-31T02:13:36;12.10;99.90
1644;DHT22;46825;51.99869940;8.49421771;2023-10-31T02:14:38;12.10;99.90
1644;DHT22;46825;51.99869940;8.49421771;2023-10-31T02:15:38;12.00;99.90
1644;DHT22;46825;51.99869940;8.49421771;2023-10-31T02:16:39;12.00;99.90
1644;DHT22;46825;51.99869940;8.49421771;2023-10-31T02:17:40;11.90;99.90
1644;DHT22;46825;51.99869940;8.49421771;2023-10-31T02:20:42;11.90;99.90
1644;DHT22;46825;51.99869940;8.49421771;2023-10-31T02:21:43;11.90;99.90
1644;DHT22;46825;51.99869940;8.49421771;2023-10-31T02:22:44;11.80;99.90
1644;DHT22;46825;51.99869940;8.49421771;2023-10-31T02:23:56;11.80;99.90
1644;DHT22;46825;51.99869940;8.49421771;2023-10-31T02:24:57;11.70;99.90
1644;DHT22;46825;51.99869940;8.49421771;2023-10-31T02:25:58;11.70;99.90
1644;DHT22;46825;51.99869940;8.49421771;2023-10-31T02:26:58;11.70;99.90
1644;DHT22;46825;51.99869940;8.49421771;2023-10-31T02:27:59;11.60;99.90
1644;DHT22;46825;51.99869940;8.49421771;2023-10-31T02:29:01;11.60;99.90
1644;DHT22;46825;51.99869940;8.49421771;2023-10-31T02:31:02;11.70;99.90
1644;DHT22;46825;51.99869940;8.49421771;2023-10-31T02:33:04;11.60;99.90
1644;DHT22;46825;51.99869940;8.49421771;2023-10-31T02:34:05;11.50;99.90
1644;DHT22;46825;51.99869940;8.49421771;2023-10-31T02:35:07;11.50;99.90
1644;DHT22;46825;51.99869940;8.49421771;2023-10-31T02:37:09;11.50;99.90
1644;DHT22;46825;51.99869940;8.49421771;2023-10-31T02:38:09;11.50;99.90
1644;DHT22;46825;51.99869940;8.49421771;2023-10-31T02:40:11;11.50;99.90
1644;DHT22;46825;51.99869940;8.49421771;2023-10-31T02:41:12;11.50;99.90
1644;DHT22;46825;51.99869940;8.49421771;2023-10-31T02:42:13;11.50;99.90
1644;DHT22;46825;51.99869940;8.49421771;2023-10-31T02:44:15;11.50;99.90
1644;DHT22;46825;51.99869940;8.49421771;2023-10-31T02:45:16;11.50;99.90
1644;DHT22;46825;51.99869940;8.49421771;2023-10-31T02:46:17;11.50;99.90
1644;DHT22;46825;51.99869940;8.49421771;2023-10-31T02:48:19;11.50;99.90
1644;DHT22;46825;51.99869940;8.49421771;2023-10-31T02:49:20;11.40;99.90
1644;DHT22;46825;51.99869940;8.49421771;2023-10-31T02:50:21;11.40;99.90
1644;DHT22;46825;51.99869940;8.49421771;2023-10-31T02:52:23;11.50;99.90
1644;DHT22;46825;51.99869940;8.49421771;2023-10-31T02:53:23;11.50;99.90
1644;DHT22;46825;51.99869940;8.49421771;2023-10-31T02:54:24;11.40;99.90
1644;DHT22;46825;51.99869940;8.49421771;2023-10-31T02:55:24;11.50;99.90
1644;DHT22;46825;51.99869940;8.49421771;2023-10-31T02:56:25;11.40;99.90
1644;DHT22;46825;51.99869940;8.49421771;2023-10-31T02:57:26;11.40;99.90
1644;DHT22;46825;51.99869940;8.49421771;2023-10-31T02:58:26;11.40;99.90
1644;DHT22;46825;51.99869940;8.49421771;2023-10-31T02:59:27;11.40;99.90
1644;DHT22;46825;51.99869940;8.49421771;2023-10-31T03:00:27;11.30;99.90
1644;DHT22;46825;51.99869940;8.49421771;2023-10-31T03:01:29;11.40;99.90
1644;DHT22;46825;51.99869940;8.49421771;2023-10-31T03:02:29;11.40;99.90
1644;DHT22;46825;51.99869940;8.49421771;2023-10-31T03:05:32;11.40;99.90
1644;DHT22;46825;51.99869940;8.49421771;2023-10-31T03:06:33;11.30;99.90
1644;DHT22;46825;51.99869940;8.49421771;2023-10-31T03:08:34;11.30;99.90
1644;DHT22;46825;51.99869940;8.49421771;2023-10-31T03:09:35;11.30;99.90
1644;DHT22;46825;51.99869940;8.49421771;2023-10-31T03:12:37;11.30;99.90
1644;DHT22;46825;51.99869940;8.49421771;2023-10-31T03:13:38;11.30;99.90
1644;DHT22;46825;51.99869940;8.49421771;2023-10-31T03:14:38;11.30;99.90
1644;DHT22;46825;51.99869940;8.49421771;2023-10-31T03:15:39;11.30;99.90
1644;DHT22;46825;51.99869940;8.49421771;2023-10-31T03:16:39;11.30;99.90
1644;DHT22;46825;51.99869940;8.49421771;2023-10-31T03:17:40;11.20;99.90
1644;DHT22;46825;51.99869940;8.49421771;2023-10-31T03:18:40;11.20;99.90
1644;DHT22;46825;51.99869940;8.49421771;2023-10-31T03:19:41;11.20;99.90
1644;DHT22;46825;51.99869940;8.49421771;2023-10-31T03:21:46;11.20;99.90
1644;DHT22;46825;51.99869940;8.49421771;2023-10-31T03:22:47;11.20;99.90
1644;DHT22;46825;51.99869940;8.49421771;2023-10-31T03:23:49;11.30;99.90
1644;DHT22;46825;51.99869940;8.49421771;2023-10-31T03:24:49;11.30;99.90
1644;DHT22;46825;51.99869940;8.49421771;2023-10-31T03:25:50;11.20;99.90
1644;DHT22;46825;51.99869940;8.49421771;2023-10-31T03:26:51;11.30;99.90
1644;DHT22;46825;51.99869940;8.49421771;2023-10-31T03:27:51;11.20;99.90
1644;DHT22;46825;51.99869940;8.49421771;2023-10-31T03:29:57;11.20;99.90
1644;DHT22;46825;51.99869940;8.49421771;2023-10-31T03:30:57;11.20;99.90
1644;DHT22;46825;51.99869940;8.49421771;2023-10-31T03:31:58;11.10;99.90
1644;DHT22;46825;51.99869940;8.49421771;2023-10-31T03:34:00;11.20;99.90
1644;DHT22;46825;51.99869940;8.49421771;2023-10-31T03:35:01;11.20;99.90
1644;DHT22;46825;51.99869940;8.49421771;2023-10-31T03:36:02;11.20;99.90
1644;DHT22;46825;51.99869940;8.49421771;2023-10-31T03:37:02;11.20;99.90
1644;DHT22;46825;51.99869940;8.49421771;2023-10-31T03:39:04;11.20;99.90
1644;DHT22;46825;51.99869940;8.49421771;2023-10-31T03:40:05;11.20;99.90
1644;DHT22;46825;51.99869940;8.49421771;2023-10-31T03:41:06;11.20;99.90
1644;DHT22;46825;51.99869940;8.49421771;2023-10-31T03:42:06;11.20;99.90
1644;DHT22;46825;51.99869940;8.49421771;2023-10-31T03:44:08;11.10;99.90
1644;DHT22;46825;51.99869940;8.49421771;2023-10-31T03:45:09;11.10;99.90
1644;DHT22;46825;51.99869940;8.49421771;2023-10-31T03:46:11;11.00;99.90
1644;DHT22;46825;51.99869940;8.49421771;2023-10-31T03:47:12;11.00;99.90
1644;DHT22;46825;51.99869940;8.49421771;2023-10-31T03:48:12;11.00;99.90
1644;DHT22;46825;51.99869940;8.49421771;2023-10-31T03:49:13;11.00;99.90
1644;DHT22;46825;51.99869940;8.49421771;2023-10-31T03:50:14;11.00;99.90
1644;DHT22;46825;51.99869940;8.49421771;2023-10-31T03:51:14;11.00;99.90
1644;DHT22;46825;51.99869940;8.49421771;2023-10-31T03:53:16;11.10;99.90
1644;DHT22;46825;51.99869940;8.49421771;2023-10-31T03:54:17;11.10;99.90
1644;DHT22;46825;51.99869940;8.49421771;2023-10-31T03:55:17;11.10;99.90
1644;DHT22;46825;51.99869940;8.49421771;2023-10-31T03:56:18;11.00;99.90
1644;DHT22;46825;51.99869940;8.49421771;2023-10-31T03:57:18;11.00;99.90
1644;DHT22;46825;51.99869940;8.49421771;2023-10-31T03:58:19;11.10;99.90
1644;DHT22;46825;51.99869940;8.49421771;2023-10-31T04:00:21;11.10;99.90
1644;DHT22;46825;51.99869940;8.49421771;2023-10-31T04:02:23;11.00;99.90
1644;DHT22;46825;51.99869940;8.49421771;2023-10-31T04:04:24;11.10;99.90
1644;DHT22;46825;51.99869940;8.49421771;2023-10-31T04:05:25;11.10;99.90
1644;DHT22;46825;51.99869940;8.49421771;2023-10-31T04:06:25;11.10;99.90
1644;DHT22;46825;51.99869940;8.49421771;2023-10-31T04:07:26;11.00;99.90
1644;DHT22;46825;51.99869940;8.49421771;2023-10-31T04:08:27;11.00;99.90
1644;DHT22;46825;51.99869940;8.49421771;2023-10-31T04:09:27;11.00;99.90
1644;DHT22;46825;51.99869940;8.49421771;2023-10-31T04:10:28;10.90;99.90
1644;DHT22;46825;51.99869940;8.49421771;2023-10-31T04:12:29;11.00;99.90
1644;DHT22;46825;51.99869940;8.49421771;2023-10-31T04:13:30;11.00;99.90
1644;DHT22;46825;51.99869940;8.49421771;2023-10-31T04:14:30;11.00;99.90
1644;DHT22;46825;51.99869940;8.49421771;2023-10-31T04:15:31;11.10;99.90
1644;DHT22;46825;51.99869940;8.49421771;2023-10-31T04:16:32;11.00;99.90
1644;DHT22;46825;51.99869940;8.49421771;2023-10-31T04:17:32;11.00;99.90
1644;DHT22;46825;51.99869940;8.49421771;2023-10-31T04:18:33;11.00;99.90
1644;DHT22;46825;51.99869940;8.49421771;2023-10-31T04:21:41;11.00;99.90
1644;DHT22;46825;51.99869940;8.49421771;2023-10-31T04:22:41;10.90;99.90
1644;DHT22;46825;51.99869940;8.49421771;2023-10-31T04:23:42;10.90;99.90
1644;DHT22;46825;51.99869940;8.49421771;2023-10-31T04:25:44;10.90;99.90
1644;DHT22;46825;51.99869940;8.49421771;2023-10-31T04:26:45;10.90;99.90
1644;DHT22;46825;51.99869940;8.49421771;2023-10-31T04:27:45;10.90;99.90
1644;DHT22;46825;51.99869940;8.49421771;2023-10-31T04:28:46;10.90;99.90
1644;DHT22;46825;51.99869940;8.49421771;2023-10-31T04:29:46;10.90;99.90
1644;DHT22;46825;51.99869940;8.49421771;2023-10-31T04:30:47;10.90;99.90
1644;DHT22;46825;51.99869940;8.49421771;2023-10-31T04:31:48;10.90;99.90
1644;DHT22;46825;51.99869940;8.49421771;2023-10-31T04:33:49;10.90;99.90
1644;DHT22;46825;51.99869940;8.49421771;2023-10-31T04:34:50;10.90;99.90
1644;DHT22;46825;51.99869940;8.49421771;2023-10-31T04:35:51;10.90;99.90
1644;DHT22;46825;51.99869940;8.49421771;2023-10-31T04:36:51;10.90;99.90
1644;DHT22;46825;51.99869940;8.49421771;2023-10-31T04:37:52;10.90;99.90
1644;DHT22;46825;51.99869940;8.49421771;2023-10-31T04:38:52;10.90;99.90
1644;DHT22;46825;51.99869940;8.49421771;2023-10-31T04:39:53;10.90;99.90
1644;DHT22;46825;51.99869940;8.49421771;2023-10-31T04:41:54;10.80;99.90
1644;DHT22;46825;51.99869940;8.49421771;2023-10-31T04:42:55;10.90;99.90
1644;DHT22;46825;51.99869940;8.49421771;2023-10-31T04:43:55;10.80;99.90
1644;DHT22;46825;51.99869940;8.49421771;2023-10-31T04:45:57;10.80;99.90
1644;DHT22;46825;51.99869940;8.49421771;2023-10-31T04:46:58;10.80;99.90
1644;DHT22;46825;51.99869940;8.49421771;2023-10-31T04:47:58;10.80;99.90
1644;DHT22;46825;51.99869940;8.49421771;2023-10-31T04:50:00;10.80;99.90
1644;DHT22;46825;51.99869940;8.49421771;2023-10-31T04:51:00;10.80;99.90
1644;DHT22;46825;51.99869940;8.49421771;2023-10-31T04:52:01;10.70;99.90
1644;DHT22;46825;51.99869940;8.49421771;2023-10-31T04:53:02;10.70;99.90
1644;DHT22;46825;51.99869940;8.49421771;2023-10-31T04:54:03;10.80;99.90
1644;DHT22;46825;51.99869940;8.49421771;2023-10-31T04:55:04;10.80;99.90
1644;DHT22;46825;51.99869940;8.49421771;2023-10-31T04:56:12;10.80;99.90
1644;DHT22;46825;51.99869940;8.49421771;2023-10-31T04:57:14;10.70;99.90
1644;DHT22;46825;51.99869940;8.49421771;2023-10-31T04:58:14;10.70;99.90
1644;DHT22;46825;51.99869940;8.49421771;2023-10-31T05:00:16;10.80;99.90
1644;DHT22;46825;51.99869940;8.49421771;2023-10-31T05:01:17;10.80;99.90
1644;DHT22;46825;51.99869940;8.49421771;2023-10-31T05:02:17;10.80;99.90
1644;DHT22;46825;51.99869940;8.49421771;2023-10-31T05:04:19;10.70;99.90
1644;DHT22;46825;51.99869940;8.49421771;2023-10-31T05:06:21;10.80;99.90
1644;DHT22;46825;51.99869940;8.49421771;2023-10-31T05:08:23;10.70;99.90
1644;DHT22;46825;51.99869940;8.49421771;2023-10-31T05:09:24;10.80;99.90
1644;DHT22;46825;51.99869940;8.49421771;2023-10-31T05:12:26;10.80;99.90
1644;DHT22;46825;51.99869940;8.49421771;2023-10-31T05:13:27;10.80;99.90
1644;DHT22;46825;51.99869940;8.49421771;2023-10-31T05:14:27;10.90;99.90
1644;DHT22;46825;51.99869940;8.49421771;2023-10-31T05:15:28;10.80;99.90
1644;DHT22;46825;51.99869940;8.49421771;2023-10-31T05:16:29;10.80;99.90
1644;DHT22;46825;51.99869940;8.49421771;2023-10-31T05:17:29;10.80;99.90
1644;DHT22;46825;51.99869940;8.49421771;2023-10-31T05:18:30;10.80;99.90
1644;DHT22;46825;51.99869940;8.49421771;2023-10-31T05:19:31;10.90;99.90
1644;DHT22;46825;51.99869940;8.49421771;2023-10-31T05:20:31;10.80;99.90
1644;DHT22;46825;51.99869940;8.49421771;2023-10-31T05:21:32;10.90;99.90
1644;DHT22;46825;51.99869940;8.49421771;2023-10-31T05:22:32;10.80;99.90
1644;DHT22;46825;51.99869940;8.49421771;2023-10-31T05:24:34;10.80;99.90
1644;DHT22;46825;51.99869940;8.49421771;2023-10-31T05:26:36;10.80;99.90
1644;DHT22;46825;51.99869940;8.49421771;2023-10-31T05:27:37;10.80;99.90
1644;DHT22;46825;51.99869940;8.49421771;2023-10-31T05:32:43;10.80;99.90
1644;DHT22;46825;51.99869940;8.49421771;2023-10-31T05:33:44;10.90;99.90
1644;DHT22;46825;51.99869940;8.49421771;2023-10-31T05:34:45;10.80;99.90
1644;DHT22;46825;51.99869940;8.49421771;2023-10-31T05:35:45;10.80;99.90
1644;DHT22;46825;51.99869940;8.49421771;2023-10-31T05:37:47;10.80;99.90
1644;DHT22;46825;51.99869940;8.49421771;2023-10-31T05:39:49;10.80;99.90
1644;DHT22;46825;51.99869940;8.49421771;2023-10-31T05:41:50;10.80;99.90
1644;DHT22;46825;51.99869940;8.49421771;2023-10-31T05:42:51;10.80;99.90
1644;DHT22;46825;51.99869940;8.49421771;2023-10-31T05:44:52;10.80;99.90
1644;DHT22;46825;51.99869940;8.49421771;2023-10-31T05:45:53;10.80;99.90
1644;DHT22;46825;51.99869940;8.49421771;2023-10-31T05:49:56;10.80;99.90
1644;DHT22;46825;51.99869940;8.49421771;2023-10-31T05:50:57;10.80;99.90
1644;DHT22;46825;51.99869940;8.49421771;2023-10-31T05:51:58;10.80;99.90
1644;DHT22;46825;51.99869940;8.49421771;2023-10-31T05:52:59;10.80;99.90
1644;DHT22;46825;51.99869940;8.49421771;2023-10-31T05:54:00;10.80;99.90
1644;DHT22;46825;51.99869940;8.49421771;2023-10-31T05:55:00;10.80;99.90
1644;DHT22;46825;51.99869940;8.49421771;2023-10-31T05:56:01;10.80;99.90
1644;DHT22;46825;51.99869940;8.49421771;2023-10-31T05:57:01;10.90;99.90
1644;DHT22;46825;51.99869940;8.49421771;2023-10-31T05:58:02;10.90;99.90
1644;DHT22;46825;51.99869940;8.49421771;2023-10-31T05:59:03;10.90;99.90
1644;DHT22;46825;51.99869940;8.49421771;2023-10-31T06:00:03;10.90;99.90
1644;DHT22;46825;51.99869940;8.49421771;2023-10-31T06:01:04;10.90;99.90
1644;DHT22;46825;51.99869940;8.49421771;2023-10-31T06:02:05;10.90;99.90
1644;DHT22;46825;51.99869940;8.49421771;2023-10-31T06:04:09;10.90;99.90
1644;DHT22;46825;51.99869940;8.49421771;2023-10-31T06:05:09;10.90;99.90
1644;DHT22;46825;51.99869940;8.49421771;2023-10-31T06:06:11;10.90;99.90
1644;DHT22;46825;51.99869940;8.49421771;2023-10-31T06:07:12;10.90;99.90
1644;DHT22;46825;51.99869940;8.49421771;2023-10-31T06:08:12;10.90;99.90
1644;DHT22;46825;51.99869940;8.49421771;2023-10-31T06:09:13;10.80;99.90
1644;DHT22;46825;51.99869940;8.49421771;2023-10-31T06:10:14;10.90;99.90
1644;DHT22;46825;51.99869940;8.49421771;2023-10-31T06:11:15;10.90;99.90
1644;DHT22;46825;51.99869940;8.49421771;2023-10-31T06:12:16;10.90;99.90
1644;DHT22;46825;51.99869940;8.49421771;2023-10-31T06:13:17;10.90;99.90
1644;DHT22;46825;51.99869940;8.49421771;2023-10-31T06:14:17;10.90;99.90
1644;DHT22;46825;51.99869940;8.49421771;2023-10-31T06:15:18;10.90;99.90
1644;DHT22;46825;51.99869940;8.49421771;2023-10-31T06:16:19;10.90;99.90
1644;DHT22;46825;51.99869940;8.49421771;2023-10-31T06:18:20;10.90;99.90
1644;DHT22;46825;51.99869940;8.49421771;2023-10-31T06:19:21;10.90;99.90
1644;DHT22;46825;51.99869940;8.49421771;2023-10-31T06:20:22;10.90;99.90
1644;DHT22;46825;51.99869940;8.49421771;2023-10-31T06:21:22;10.90;99.90
1644;DHT22;46825;51.99869940;8.49421771;2023-10-31T06:22:23;10.90;99.90
1644;DHT22;46825;51.99869940;8.49421771;2023-10-31T06:23:23;11.00;99.90
1644;DHT22;46825;51.99869940;8.49421771;2023-10-31T06:24:24;11.00;99.90
1644;DHT22;46825;51.99869940;8.49421771;2023-10-31T06:25:24;11.00;99.90
1644;DHT22;46825;51.99869940;8.49421771;2023-10-31T06:26:25;11.00;99.90
1644;DHT22;46825;51.99869940;8.49421771;2023-10-31T06:27:26;11.00;99.90
1644;DHT22;46825;51.99869940;8.49421771;2023-10-31T06:28:26;11.00;99.90
1644;DHT22;46825;51.99869940;8.49421771;2023-10-31T06:29:27;11.00;99.90
1644;DHT22;46825;51.99869940;8.49421771;2023-10-31T06:30:27;11.00;99.90
1644;DHT22;46825;51.99869940;8.49421771;2023-10-31T06:32:29;11.10;99.90
1644;DHT22;46825;51.99869940;8.49421771;2023-10-31T06:33:30;11.10;99.90
1644;DHT22;46825;51.99869940;8.49421771;2023-10-31T06:34:30;11.10;99.90
1644;DHT22;46825;51.99869940;8.49421771;2023-10-31T06:35:31;11.10;99.90
1644;DHT22;46825;51.99869940;8.49421771;2023-10-31T06:37:32;11.10;99.90
1644;DHT22;46825;51.99869940;8.49421771;2023-10-31T06:38:33;11.00;99.90
1644;DHT22;46825;51.99869940;8.49421771;2023-10-31T06:40:34;11.00;99.90
1644;DHT22;46825;51.99869940;8.49421771;2023-10-31T06:41:35;11.00;99.90
1644;DHT22;46825;51.99869940;8.49421771;2023-10-31T06:42:36;11.00;99.90